Time;durP1;ratioP1;P1;durP2;ratioP2;P2;SDS_P1;SDS_P2;PMS_P1;PMS_P2;Temp;Humidity;BMP_temperature;BMP_pressure;BME280_temperature;BME280_humidity;BME280_pressure;Samples;Min_cycle;Max_cycle;Signal;HPM_P1;HPM_P2
2022/06/01 00:00:00;;;;;;;3.40;2.10;;;;;;;;;;5070578;28;20458;-79
2022/06/01 00:02:27;;;;;;;2.00;1.80;;;;;;;;;;5070577;28;20447;-78
2022/06/01 00:04:56;;;;;;;2.20;2.00;;;;;;;;;;5072146;28;20926;-79
2022/06/01 00:07:25;;;;;;;2.27;2.03;;;;;;;;;;5071186;28;20444;-78
2022/06/01 00:09:54;;;;;;;2.10;1.60;;;;;;;;;;5070730;28;20473;-79
2022/06/01 00:12:21;;;;;;;1.97;1.60;;;;;;;;;;5061171;28;20467;-77
2022/06/01 00:14:48;;;;;;;2.17;2.00;;;;;;;;;;5070563;28;20840;-77
2022/06/01 00:17:16;;;;;;;2.43;1.90;;;;;;;;;;5070953;28;20537;-77
2022/06/01 00:19:43;;;;;;;1.50;1.30;;;;;;;;;;5070718;28;20512;-77
2022/06/01 00:22:16;;;;;;;1.80;1.53;;;;;;;;;;5070961;28;20449;-79
2022/06/01 00:24:44;;;;;;;3.30;1.80;;;;;;;;;;5070639;28;20474;-78
2022/06/01 00:27:12;;;;;;;2.30;2.10;;;;;;;;;;5070671;28;20488;-78
2022/06/01 00:29:40;;;;;;;3.00;2.03;;;;;;;;;;5070148;28;20489;-77
2022/06/01 00:32:08;;;;;;;2.13;1.60;;;;;;;;;;5070610;28;20473;-79
2022/06/01 00:34:36;;;;;;;3.63;1.60;;;;;;;;;;5070492;28;20525;-78
2022/06/01 00:37:03;;;;;;;4.03;1.70;;;;;;;;;;5070261;28;20948;-77
2022/06/01 00:39:31;;;;;;;1.70;1.57;;;;;;;;;;5070359;28;20456;-79
2022/06/01 00:42:09;;;;;;;2.73;2.33;;;;;;;;;;5070595;28;20868;-79
2022/06/01 00:44:37;;;;;;;3.00;2.03;;;;;;;;;;5071255;28;20868;-78
2022/06/01 00:47:04;;;;;;;3.50;2.43;;;;;;;;;;5070923;28;20868;-77
2022/06/01 00:49:31;;;;;;;6.30;2.40;;;;;;;;;;5070236;28;20489;-78
2022/06/01 00:51:58;;;;;;;2.50;2.20;;;;;;;;;;5076709;28;20485;-77
2022/06/01 00:54:27;;;;;;;2.70;2.13;;;;;;;;;;5071315;28;20532;-78
2022/06/01 00:56:58;;;;;;;2.13;1.67;;;;;;;;;;5070414;28;20450;-79
2022/06/01 00:59:28;;;;;;;1.87;1.60;;;;;;;;;;5067921;28;20527;-78
2022/06/01 01:01:56;;;;;;;2.23;1.90;;;;;;;;;;5069405;28;20445;-79
2022/06/01 01:04:23;;;;;;;2.40;2.03;;;;;;;;;;5070332;28;20947;-79
2022/06/01 01:06:50;;;;;;;3.50;2.07;;;;;;;;;;5073518;28;20457;-78
2022/06/01 01:09:18;;;;;;;2.37;1.90;;;24.50;1.00;;;;;;5074315;28;20477;-80
2022/06/01 01:11:50;;;;;;;2.30;1.73;;;12.10;99.90;;;;;;5073277;28;20484;-78
2022/06/01 01:14:22;;;;;;;3.10;1.70;;;11.90;99.90;;;;;;5074635;28;20551;-79
2022/06/01 01:16:50;;;;;;;2.67;2.20;;;11.90;99.90;;;;;;5073204;28;20477;-78
2022/06/01 01:19:29;;;;;;;1.70;1.60;;;11.90;99.90;;;;;;5074109;28;20480;-78
2022/06/01 01:22:07;;;;;;;2.20;1.97;;;12.00;99.90;;;;;;5073090;28;20448;-78
2022/06/01 01:24:44;;;;;;;4.47;2.37;;;12.00;99.90;;;;;;5074137;28;20441;-78
2022/06/01 01:27:13;;;;;;;3.90;2.87;;;12.20;99.90;;;;;;5069896;28;20449;-76
2022/06/01 01:29:42;;;;;;;2.47;2.10;;;12.20;98.60;;;;;;5073807;28;20580;-77
2022/06/01 01:32:12;;;;;;;4.20;2.00;;;12.30;2.20;;;;;;5073788;28;20484;-76
2022/06/01 01:34:41;;;;;;;2.43;2.10;;;12.20;7.00;;;;;;5073814;28;20471;-77
2022/06/01 01:37:13;;;;;;;1.80;1.70;;;12.20;50.10;;;;;;5074569;28;20451;-78
2022/06/01 01:39:40;;;;;;;2.77;1.87;;;12.30;1.00;;;;;;5074184;28;20448;-78
2022/06/01 01:42:07;;;;;;;2.37;2.10;;;12.20;1.00;;;;;;5073628;28;20449;-80
2022/06/01 01:44:42;;;;;;;2.63;2.17;;;12.20;1.00;;;;;;5073547;28;20533;-79
2022/06/01 01:47:09;;;;;;;1.90;1.80;;;12.20;1.00;;;;;;5065066;28;20445;-79
2022/06/01 01:49:38;;;;;;;2.10;1.70;;;12.20;1.00;;;;;;5073895;28;20496;-79
2022/06/01 01:52:09;;;;;;;3.00;2.07;;;12.10;1.00;;;;;;5072788;28;20814;-79
2022/06/01 01:54:46;;;;;;;1.47;1.33;;;12.00;71.60;;;;;;5065848;28;20448;-79
2022/06/01 01:57:22;;;;;;;1.70;1.40;;;12.00;99.90;;;;;;5067572;28;20450;-77
2022/06/01 02:00:03;;;;;;;2.63;1.60;;;12.00;38.60;;;;;;5056901;28;20507;-79
2022/06/01 02:02:37;;;;;;;2.57;2.17;;;12.10;1.00;;;;;;5063134;28;20862;-79
2022/06/01 02:07:58;;;;;;;3.20;2.30;;;12.00;1.00;;;;;;5068084;28;20506;-79
2022/06/01 02:13:12;;;;;;;2.60;2.03;;;12.20;1.00;;;;;;5071474;28;20552;-77
2022/06/01 02:15:43;;;;;;;2.30;2.10;;;12.10;1.00;;;;;;5072512;28;20438;-79
2022/06/01 02:18:15;;;;;;;3.40;2.03;;;12.00;1.00;;;;;;5073689;28;20455;-79
2022/06/01 02:20:46;;;;;;;3.27;2.53;;;11.80;96.70;;;;;;5062839;28;20445;-77
2022/06/01 02:23:15;;;;;;;2.70;1.57;;;11.90;58.80;;;;;;5072799;28;20437;-79
2022/06/01 02:25:48;;;;;;;2.10;1.77;;;11.80;89.80;;;;;;5072797;28;20446;-78
2022/06/01 02:28:16;;;;;;;2.13;1.93;;;11.70;99.90;;;;;;5073344;28;20562;-79
2022/06/01 02:30:47;;;;;;;4.00;2.20;;;11.50;99.90;;;;;;5072644;28;20543;-78
2022/06/01 02:33:18;;;;;;;5.23;2.07;;;11.40;99.90;;;;;;5072298;28;20470;-76
2022/06/01 02:35:53;;;;;;;2.70;1.67;;;11.30;99.90;;;;;;5072626;28;20448;-78
2022/06/01 02:38:23;;;;;;;3.13;1.97;;;11.20;99.90;;;;;;5070998;28;20452;-76
2022/06/01 02:40:50;;;;;;;1.97;1.77;;;11.20;99.90;;;;;;5072222;28;20479;-77
2022/06/01 02:43:17;;;;;;;3.77;2.20;;;11.20;99.90;;;;;;5072353;28;20537;-76
2022/06/01 02:45:46;;;;;;;1.80;1.63;;;11.10;99.90;;;;;;5072426;28;20455;-77
2022/06/01 02:48:13;;;;;;;2.63;1.87;;;11.00;99.90;;;;;;5072434;28;20497;-75
2022/06/01 02:50:40;;;;;;;2.87;2.20;;;10.90;99.90;;;;;;5072462;28;20480;-77
2022/06/01 02:53:07;;;;;;;1.83;1.63;;;10.90;99.90;;;;;;5072222;28;20453;-78
2022/06/01 02:55:35;;;;;;;2.30;1.90;;;10.90;99.90;;;;;;5072015;28;21080;-77
2022/06/01 02:58:02;;;;;;;3.10;2.20;;;10.90;99.90;;;;;;5072132;28;20470;-77
2022/06/01 03:00:33;;;;;;;3.50;2.00;;;11.00;99.90;;;;;;5072641;28;20491;-79
2022/06/01 03:03:04;;;;;;;2.20;2.00;;;10.90;99.90;;;;;;5071251;28;20823;-79
2022/06/01 03:05:33;;;;;;;2.10;1.90;;;10.90;99.90;;;;;;5072746;28;20453;-78
2022/06/01 03:08:01;;;;;;;6.07;2.60;;;10.90;99.90;;;;;;5071832;28;20494;-78
2022/06/01 03:10:29;;;;;;;2.60;1.93;;;11.00;99.90;;;;;;5072810;28;20586;-78
2022/06/01 03:12:57;;;;;;;2.07;1.90;;;11.00;99.90;;;;;;5071133;28;20458;-77
2022/06/01 03:15:26;;;;;;;2.17;1.70;;;11.00;99.90;;;;;;5071949;28;20475;-78
2022/06/01 03:17:53;;;;;;;3.40;2.30;;;11.00;99.90;;;;;;5071262;28;20487;-79
2022/06/01 03:20:24;;;;;;;1.73;1.63;;;11.00;99.90;;;;;;5071989;28;20451;-79
2022/06/01 03:22:51;;;;;;;2.30;2.07;;;11.00;99.90;;;;;;5071204;28;20448;-79
2022/06/01 03:25:23;;;;;;;1.93;1.80;;;11.20;99.90;;;;;;5071668;28;20484;-77
2022/06/01 03:27:50;;;;;;;2.10;1.90;;;11.20;99.90;;;;;;5071196;28;20453;-77
2022/06/01 03:30:19;;;;;;;1.53;1.43;;;11.30;99.90;;;;;;5070371;28;20488;-78
2022/06/01 03:32:47;;;;;;;2.60;2.40;;;11.20;99.90;;;;;;5070027;28;20527;-76
2022/06/01 03:35:16;;;;;;;2.90;1.83;;;11.10;99.90;;;;;;5071603;28;20457;-77
2022/06/01 03:37:44;;;;;;;5.20;2.33;;;11.00;99.90;;;;;;5071835;28;20815;-77
2022/06/01 03:40:13;;;;;;;2.03;1.60;;;10.90;99.90;;;;;;5073126;28;20464;-74
2022/06/01 03:42:40;;;;;;;3.03;2.60;;;10.90;99.90;;;;;;5075623;28;20458;-76
2022/06/01 03:47:53;;;;;;;4.10;2.37;;;11.20;99.90;;;;;;5070351;28;20422;-76
2022/06/01 03:50:20;;;;;;;2.13;1.80;;;11.20;99.90;;;;;;5074448;28;20488;-76
2022/06/01 03:52:48;;;;;;;2.17;1.77;;;11.20;99.90;;;;;;5074090;28;20503;-77
2022/06/01 03:55:15;;;;;;;2.40;2.13;;;11.40;99.90;;;;;;5074284;28;20867;-77
2022/06/01 03:57:42;;;;;;;3.27;1.90;;;11.20;99.90;;;;;;5072615;28;20738;-75
2022/06/01 04:00:12;;;;;;;5.10;2.57;;;11.10;99.90;;;;;;5072443;28;20540;-77
2022/06/01 04:02:40;;;;;;;2.27;2.00;;;10.90;99.90;;;;;;5071288;28;20453;-76
2022/06/01 04:05:08;;;;;;;2.23;2.03;;;10.90;99.90;;;;;;5071800;28;20476;-76
2022/06/01 04:07:35;;;;;;;1.80;1.70;;;11.10;99.90;;;;;;5071180;28;20446;-76
2022/06/01 04:10:05;;;;;;;1.70;1.50;;;11.20;99.90;;;;;;5071540;28;20620;-76
2022/06/01 04:12:32;;;;;;;2.00;1.80;;;11.20;99.90;;;;;;5071505;28;20890;-75
2022/06/01 04:14:59;;;;;;;2.33;1.87;;;11.10;99.90;;;;;;5071119;28;20507;-76
2022/06/01 04:17:25;;;;;;;1.77;1.67;;;11.20;99.90;;;;;;5058654;28;20446;-78
2022/06/01 04:19:52;;;;;;;1.80;1.70;;;11.30;99.90;;;;;;5068636;28;20475;-77
2022/06/01 04:22:21;;;;;;;5.50;2.20;;;11.30;99.90;;;;;;5070460;28;20467;-75
2022/06/01 04:24:49;;;;;;;2.07;1.83;;;11.30;99.90;;;;;;5074301;28;20448;-72
2022/06/01 04:27:17;;;;;;;4.30;1.50;;;11.40;99.90;;;;;;5070701;28;20535;-75
2022/06/01 04:29:44;;;;;;;2.20;2.00;;;11.30;99.90;;;;;;5070050;28;20496;-75
2022/06/01 04:32:14;;;;;;;5.53;2.40;;;11.30;99.90;;;;;;5070648;28;20515;-75
2022/06/01 04:34:41;;;;;;;3.57;2.13;;;11.50;99.90;;;;;;5071250;28;20531;-75
2022/06/01 04:37:08;;;;;;;2.27;2.07;;;11.40;99.90;;;;;;5071466;28;20455;-74
2022/06/01 04:39:35;;;;;;;2.30;1.73;;;11.70;99.90;;;;;;5070834;28;20441;-75
2022/06/01 04:42:03;;;;;;;1.97;1.70;;;11.70;99.90;;;;;;5074016;28;20458;-78
2022/06/01 04:44:31;;;;;;;2.60;2.37;;;11.70;99.90;;;;;;5074703;28;20440;-78
2022/06/01 04:46:58;;;;;;;2.00;1.70;;;11.70;99.90;;;;;;5074653;28;20823;-78
2022/06/01 04:49:25;;;;;;;2.40;1.63;;;11.70;99.90;;;;;;5074563;28;20876;-77
2022/06/01 04:51:52;;;;;;;3.13;1.80;;;11.80;99.90;;;;;;5074120;28;20559;-79
2022/06/01 04:54:19;;;;;;;2.60;1.90;;;11.90;99.90;;;;;;5074470;28;20891;-75
2022/06/01 04:56:45;;;;;;;3.00;2.03;;;12.10;99.90;;;;;;5073165;28;20449;-74
2022/06/01 04:59:15;;;;;;;3.27;2.67;;;12.10;99.90;;;;;;5074143;28;20827;-76
2022/06/01 05:01:43;;;;;;;7.13;1.90;;;12.20;99.90;;;;;;5073779;28;20457;-76
2022/06/01 05:04:10;;;;;;;2.97;1.60;;;12.20;99.90;;;;;;5074879;28;20452;-74
2022/06/01 05:06:37;;;;;;;4.60;1.77;;;12.30;99.90;;;;;;5074795;28;20846;-72
2022/06/01 05:09:04;;;;;;;1.83;1.50;;;12.50;99.90;;;;;;5075286;28;20457;-70
2022/06/01 05:11:31;;;;;;;2.57;2.20;;;12.50;78.90;;;;;;5074100;28;20495;-71
2022/06/01 05:13:59;;;;;;;2.23;2.03;;;12.70;11.00;;;;;;5073620;28;20550;-71
2022/06/01 05:16:25;;;;;;;2.20;2.00;;;12.70;1.00;;;;;;5074507;28;20446;-71
2022/06/01 05:18:54;;;;;;;2.60;2.40;;;12.80;8.70;;;;;;5073790;28;20480;-72
2022/06/01 05:21:21;;;;;;;2.83;1.90;;;12.80;26.60;;;;;;5073786;28;20540;-73
2022/06/01 05:23:48;;;;;;;3.13;2.27;;;12.90;14.10;;;;;;5073632;28;20526;-72
2022/06/01 05:26:15;;;;;;;2.40;2.10;;;;;;;;;;5074250;28;20537;-71
2022/06/01 05:28:42;;;;;;;3.80;1.80;;;;;;;;;;5072997;28;20454;-72
2022/06/01 05:31:10;;;;;;;2.07;1.87;;;;;;;;;;5073511;28;20567;-71
2022/06/01 05:33:38;;;;;;;2.80;2.30;;;;;;;;;;5073774;28;20454;-70
2022/06/01 05:36:07;;;;;;;5.13;1.90;;;;;;;;;;5073165;28;20535;-72
2022/06/01 05:38:34;;;;;;;3.40;2.40;;;;;;;;;;5073720;28;20682;-71
2022/06/01 05:41:01;;;;;;;3.80;2.13;;;;;;;;;;5072904;28;20895;-73
2022/06/01 05:43:29;;;;;;;3.13;2.30;;;;;;;;;;5073478;28;20536;-71
2022/06/01 05:45:56;;;;;;;3.17;2.20;;;13.00;1.00;;;;;;5073180;28;20528;-71
2022/06/01 05:48:23;;;;;;;3.63;1.83;;;14.50;1.90;;;;;;5073731;28;20796;-72
2022/06/01 05:50:50;;;;;;;2.73;1.70;;;14.70;1.00;;;;;;5071770;28;20583;-71
2022/06/01 05:53:19;;;;;;;3.73;2.33;;;;;;;;;;5073237;28;20994;-72
2022/06/01 05:55:46;;;;;;;3.50;2.20;;;;;;;;;;5072983;28;20807;-72
2022/06/01 05:58:14;;;;;;;2.50;1.77;;;;;;;;;;5073270;28;20539;-71
2022/06/01 06:00:41;;;;;;;2.33;2.13;;;;;;;;;;5072594;28;20560;-72
2022/06/01 06:03:09;;;;;;;1.87;1.40;;;;;;;;;;5073265;28;21016;-71
2022/06/01 06:08:23;;;;;;;1.67;1.40;;;;;;;;;;5073134;28;20472;-71
2022/06/01 06:10:50;;;;;;;2.47;1.50;;;;;;;;;;5072113;28;20568;-71
2022/06/01 06:13:17;;;;;;;1.60;1.50;;;;;;;;;;5073055;28;20985;-70
2022/06/01 06:15:45;;;;;;;1.70;1.60;;;;;;;;;;5072608;28;20453;-73
2022/06/01 06:18:12;;;;;;;2.00;1.80;;;;;;;;;;5072826;28;20540;-72
2022/06/01 06:20:40;;;;;;;2.60;1.80;;;;;;;;;;5059439;28;20453;-71
2022/06/01 06:23:07;;;;;;;2.90;1.93;;;;;;;;;;5072867;28;20449;-72
2022/06/01 06:25:36;;;;;;;2.17;1.70;;;;;;;;;;5073052;28;20464;-72
2022/06/01 06:28:04;;;;;;;1.77;1.67;;;;;;;;;;5072406;28;20553;-72
2022/06/01 06:30:31;;;;;;;1.90;1.80;;;;;;;;;;5072744;28;20482;-72
2022/06/01 06:32:59;;;;;;;3.27;1.97;;;;;;;;;;5072208;28;20507;-71
2022/06/01 06:35:26;;;;;;;2.13;1.67;;;;;;;;;;5072829;28;20456;-71
2022/06/01 06:37:53;;;;;;;2.90;1.90;;;;;;;;;;5072265;28;20454;-71
2022/06/01 06:40:20;;;;;;;2.90;1.80;;;;;;;;;;5072280;28;20456;-71
2022/06/01 06:42:49;;;;;;;2.03;1.43;;;;;;;;;;5071651;28;20473;-71
2022/06/01 06:45:16;;;;;;;1.47;1.27;;;;;;;;;;5072234;28;20461;-72
2022/06/01 06:47:43;;;;;;;2.43;1.40;;;;;;;;;;5071512;28;20447;-71
2022/06/01 06:50:11;;;;;;;2.80;1.63;;;;;;;;;;5071842;28;20516;-71
2022/06/01 06:52:39;;;;;;;1.30;1.20;;;;;;;;;;5072139;28;20469;-71
2022/06/01 06:55:08;;;;;;;1.97;1.70;;;;;;;;;;5072343;28;20500;-71
2022/06/01 06:57:35;;;;;;;2.07;1.50;;;;;;;;;;5071912;28;20465;-71
2022/06/01 07:00:05;;;;;;;1.93;1.40;;;;;;;;;;5071547;28;20462;-71
2022/06/01 07:02:32;;;;;;;1.20;1.10;;;;;;;;;;5071180;28;20525;-72
2022/06/01 07:05:00;;;;;;;3.77;1.37;;;;;;;;;;5071423;28;20541;-71
2022/06/01 07:07:27;;;;;;;1.50;1.30;;;;;;;;;;5072082;28;20537;-71
2022/06/01 07:09:54;;;;;;;1.83;1.40;;;;;;;;;;5070842;28;20445;-71
2022/06/01 07:12:21;;;;;;;1.40;1.30;;;;;;;;;;5071458;28;20569;-71
2022/06/01 07:14:48;;;;;;;1.70;1.60;;;;;;;;;;5071263;28;20445;-71
2022/06/01 07:17:17;;;;;;;3.40;1.30;;;;;;;;;;5071817;28;20453;-71
2022/06/01 07:19:44;;;;;;;2.33;1.50;;;;;;;;;;5071101;28;20438;-71
2022/06/01 07:22:11;;;;;;;5.00;1.70;;;;;;;;;;5071607;28;20936;-71
2022/06/01 07:24:38;;;;;;;2.70;1.50;;;;;;;;;;5071557;28;20449;-70
2022/06/01 07:27:06;;;;;;;1.70;1.33;;;;;;;;;;5070834;28;20452;-70
2022/06/01 07:29:33;;;;;;;1.97;1.60;;;;;;;;;;5071432;28;20549;-71
2022/06/01 07:32:00;;;;;;;1.40;1.30;;;;;;;;;;5070945;28;20502;-71
2022/06/01 07:34:28;;;;;;;2.60;1.70;;;;;;;;;;5071617;28;20452;-71
2022/06/01 07:43:05;;;;;;;3.70;2.00;;;;;;;;;;5070847;28;20533;-70
2022/06/01 07:45:12;;;;;;;1.40;1.30;;;;;;;;;;5071267;28;20449;-71
2022/06/01 07:47:39;;;;;;;5.60;1.90;;;;;;;;;;5071472;28;20537;-71
2022/06/01 07:50:09;;;;;;;1.80;1.70;;;;;;;;;;5071214;28;20450;-71
2022/06/01 07:52:36;;;;;;;3.37;1.60;;;;;;;;;;5070930;28;20477;-71
2022/06/01 07:55:05;;;;;;;2.20;1.80;;;;;;;;;;5070639;28;20872;-72
2022/06/01 07:57:33;;;;;;;2.23;1.20;;;;;;;;;;5071232;28;20541;-71
2022/06/01 08:00:00;;;;;;;2.80;1.50;;;;;;;;;;5070066;28;20449;-71
2022/06/01 08:02:27;;;;;;;1.80;1.70;;;;;;;;;;5071259;28;20446;-71
2022/06/01 08:04:54;;;;;;;1.30;1.20;;;;;;;;;;5070764;28;20875;-70
2022/06/01 08:07:23;;;;;;;2.07;1.10;;;;;;;;;;5071120;28;20445;-71
2022/06/01 08:09:50;;;;;;;1.50;1.40;;;;;;;;;;5070030;28;20853;-71
2022/06/01 08:15:02;;;;;;;1.97;1.20;;;;;;;;;;5070136;28;20520;-72
2022/06/01 08:17:30;;;;;;;1.40;1.30;;;;;;;;;;5071015;28;20990;-70
2022/06/01 08:19:57;;;;;;;1.40;1.30;;;;;;;;;;5070305;28;20890;-71
2022/06/01 08:22:25;;;;;;;1.10;1.00;;;;;;;;;;5071156;28;20457;-71
2022/06/01 08:24:52;;;;;;;2.60;1.43;;;;;;;;;;5069879;28;20993;-71
2022/06/01 08:27:19;;;;;;;2.30;1.70;;;;;;;;;;5070909;28;20846;-71
2022/06/01 08:29:47;;;;;;;1.17;1.07;;;;;;;;;;5070051;28;20873;-71
2022/06/01 08:32:14;;;;;;;1.30;1.20;;;;;;;;;;5070718;28;20541;-70
2022/06/01 08:34:41;;;;;;;1.20;1.10;;;;;;;;;;5070292;28;20456;-73
2022/06/01 08:37:09;;;;;;;2.30;1.23;;;;;;;;;;5071341;28;20800;-70
2022/06/01 08:39:37;;;;;;;2.40;1.10;;;;;;;;;;5072055;28;20457;-71
2022/06/01 08:42:06;;;;;;;1.50;1.40;;;;;;;;;;5072743;28;20450;-71
2022/06/01 08:44:36;;;;;;;1.90;1.43;;;14.90;99.90;;;;;;5073368;28;20540;-70
2022/06/01 08:47:07;;;;;;;1.67;1.33;;;21.20;1.00;;;;;;5072279;28;20464;-71
2022/06/01 08:49:36;;;;;;;1.83;1.30;;;21.40;1.00;;;;;;5072215;28;20446;-69
2022/06/01 08:52:05;;;;;;;1.20;1.10;;;21.20;1.00;;;;;;5072105;28;20844;-71
2022/06/01 08:54:32;;;;;;;1.37;1.27;;;21.10;1.00;;;;;;5071534;28;20532;-71
2022/06/01 08:57:06;;;;;;;2.27;1.80;;;21.20;1.00;;;;;;5070346;28;20460;-71
2022/06/01 08:59:41;;;;;;;2.27;1.37;;;21.40;1.00;;;;;;5070079;28;20870;-71
2022/06/01 09:02:21;;;;;;;1.50;1.40;;;21.80;1.00;;;;;;5070471;28;20524;-71
2022/06/01 09:04:53;;;;;;;3.80;1.30;;;21.70;1.00;;;;;;5070131;28;20521;-71
2022/06/01 09:07:27;;;;;;;1.30;1.10;;;21.80;1.00;;;;;;5070205;28;20438;-71
2022/06/01 09:10:16;;;;;;;1.00;0.93;;;21.70;1.00;;;;;;5069279;28;20917;-72
2022/06/01 09:12:45;;;;;;;1.37;1.20;;;21.60;1.00;;;;;;5066511;28;20647;-72
2022/06/01 09:15:18;;;;;;;1.40;1.30;;;21.80;1.00;;;;;;5070210;28;20456;-72
2022/06/01 09:17:45;;;;;;;1.33;1.10;;;21.50;1.00;;;;;;5069792;28;20453;-72
2022/06/01 09:23:01;;;;;;;1.33;1.23;;;21.30;1.00;;;;;;5069749;28;20924;-71
2022/06/01 09:25:32;;;;;;;5.37;1.60;;;20.90;1.00;;;;;;5070434;28;20437;-71
2022/06/01 09:28:05;;;;;;;1.33;1.10;;;20.90;1.00;;;;;;5073661;28;20438;-72
2022/06/01 09:30:34;;;;;;;1.87;1.20;;;21.10;1.00;;;;;;5073963;28;20462;-71
2022/06/01 09:33:13;;;;;;;1.90;1.53;;;21.50;1.00;;;;;;5072881;28;20501;-72
2022/06/01 09:35:43;;;;;;;3.50;1.50;;;21.40;1.00;;;;;;5073888;28;20524;-71
2022/06/01 09:38:18;;;;;;;1.83;1.10;;;21.40;1.00;;;;;;5074004;28;20805;-71
2022/06/01 09:40:45;;;;;;;1.40;1.30;;;21.60;1.00;;;;;;5072573;28;20940;-71
2022/06/01 09:43:24;;;;;;;1.27;1.00;;;21.80;1.00;;;;;;5073558;28;20819;-71
2022/06/01 09:45:54;;;;;;;3.20;1.30;;;22.10;1.00;;;;;;5073248;28;20453;-71
2022/06/01 09:48:30;;;;;;;1.90;1.10;;;21.80;1.00;;;;;;5073695;28;20445;-71
2022/06/01 09:51:05;;;;;;;1.20;0.90;;;21.70;1.00;;;;;;5072583;28;20473;-71
2022/06/01 09:53:37;;;;;;;1.47;0.90;;;21.60;1.00;;;;;;5073411;28;20440;-71
2022/06/01 09:56:05;;;;;;;1.00;0.90;;;21.60;1.00;;;;;;5072629;28;20475;-72
2022/06/01 10:06:55;;;;;;;1.23;0.77;;;22.40;1.00;;;;;;5072581;28;20440;-71
2022/06/01 10:09:25;;;;;;;1.30;0.90;;;22.40;1.00;;;;;;5059615;28;20456;-71
2022/06/01 10:11:54;;;;;;;2.70;1.20;;;22.40;1.00;;;;;;5072420;28;20484;-70
2022/06/01 10:14:26;;;;;;;1.43;1.10;;;22.60;1.00;;;;;;5073199;28;20456;-71
2022/06/01 10:17:15;;;;;;;1.43;1.13;;;22.90;1.00;;;;;;5072527;28;20442;-71
2022/06/01 10:19:47;;;;;;;0.93;0.90;;;23.10;1.00;;;;;;5072521;28;20537;-72
2022/06/01 10:22:22;;;;;;;1.10;1.00;;;22.80;1.00;;;;;;5073297;28;20507;-71
2022/06/01 10:24:54;;;;;;;3.03;1.37;;;22.80;1.00;;;;;;5071964;28;20446;-72
2022/06/01 10:27:25;;;;;;;1.23;1.13;;;22.80;1.00;;;;;;5073238;28;20446;-72
2022/06/01 10:30:04;;;;;;;1.30;0.90;;;22.90;1.00;;;;;;5072120;28;20463;-71
2022/06/01 10:32:36;;;;;;;0.93;0.70;;;22.80;1.00;;;;;;5073087;28;20495;-71
2022/06/01 10:35:12;;;;;;;1.10;0.80;;;22.60;1.00;;;;;;5072114;28;20438;-71
2022/06/01 10:37:43;;;;;;;1.40;1.10;;;22.40;1.00;;;;;;5071949;28;20485;-71
2022/06/01 10:40:16;;;;;;;3.70;0.80;;;22.20;1.00;;;;;;5074629;28;20452;-71
2022/06/01 10:45:38;;;;;;;0.90;0.90;;;22.50;1.00;;;;;;5074429;28;20834;-70
2022/06/01 10:48:12;;;;;;;1.03;0.87;;;22.80;1.00;;;;;;5075485;28;20503;-71
2022/06/01 10:50:46;;;;;;;1.00;0.90;;;23.00;1.00;;;;;;5072469;28;20487;-71
2022/06/01 10:53:18;;;;;;;1.37;0.80;;;23.00;1.00;;;;;;5059487;28;20986;-71
2022/06/01 10:55:45;;;;;;;1.47;1.10;;;23.10;1.00;;;;;;5071342;28;20969;-71
2022/06/01 10:58:18;;;;;;;2.60;1.13;;;23.20;1.00;;;;;;5072229;28;20541;-72
2022/06/01 11:00:55;;;;;;;1.17;0.90;;;23.10;1.00;;;;;;5070871;28;20449;-72
2022/06/01 11:03:55;;;;;;;1.30;0.97;;;22.70;1.00;;;;;;5071972;28;20477;-72
2022/06/01 11:06:32;;;;;;;1.40;1.30;;;23.10;1.00;;;;;;5071918;28;20445;-72
2022/06/01 11:09:05;;;;;;;0.80;0.80;;;23.40;1.00;;;;;;5070809;28;20506;-72
2022/06/01 11:11:42;;;;;;;1.17;0.87;;;23.40;1.00;;;;;;5072233;28;20813;-72
2022/06/01 11:14:31;;;;;;;1.40;0.90;;;23.50;1.00;;;;;;5072084;28;20446;-72
2022/06/01 11:17:02;;;;;;;0.80;0.80;;;23.10;1.00;;;;;;5071708;28;20445;-70
2022/06/01 11:19:44;;;;;;;0.83;0.80;;;23.00;1.00;;;;;;5072107;28;20441;-72
2022/06/01 11:22:25;;;;;;;1.00;0.90;;;23.20;1.00;;;;;;5071728;28;20998;-71
2022/06/01 11:25:04;;;;;;;1.30;1.13;;;23.80;1.00;;;;;;5070933;28;20945;-71
2022/06/01 11:27:51;;;;;;;3.23;0.93;;;23.90;1.00;;;;;;5072211;28;20453;-71
2022/06/01 11:30:20;;;;;;;1.40;0.77;;;24.00;1.00;;;;;;5071554;28;20453;-71
2022/06/01 11:32:55;;;;;;;1.23;0.90;;;24.10;1.00;;;;;;5071171;28;20862;-71
2022/06/01 11:35:34;;;;;;;1.27;0.97;;;23.40;1.00;;;;;;5059781;28;20456;-70
2022/06/01 11:38:09;;;;;;;1.03;0.80;;;23.10;1.00;;;;;;5071212;28;21042;-71
2022/06/01 11:40:43;;;;;;;0.73;0.70;;;22.90;1.00;;;;;;5070913;28;20774;-71
2022/06/01 11:43:16;;;;;;;1.43;0.60;;;23.10;1.00;;;;;;5071396;28;20449;-72
2022/06/01 11:45:46;;;;;;;1.00;0.90;;;23.10;1.00;;;;;;5071140;28;20449;-72
2022/06/01 11:48:21;;;;;;;0.77;0.77;;;23.60;1.00;;;;;;5071552;28;20442;-72
2022/06/01 11:50:57;;;;;;;1.00;0.80;;;23.60;1.00;;;;;;5070237;28;20817;-72
2022/06/01 11:53:33;;;;;;;1.17;0.97;;;23.50;1.00;;;;;;5071379;28;20597;-72
2022/06/01 11:56:17;;;;;;;0.90;0.80;;;;;;;;;;5070281;28;20917;-72
2022/06/01 11:58:47;;;;;;;1.17;0.90;;;;;;;;;;5070021;28;20441;-72
2022/06/01 12:01:17;;;;;;;1.83;0.90;;;;;;;;;;5071078;28;20943;-72
2022/06/01 12:03:55;;;;;;;1.10;0.80;;;;;;;;;;5070548;28;20562;-72
2022/06/01 12:06:44;;;;;;;1.00;0.90;;;;;;;;;;5071165;28;20451;-72
2022/06/01 12:09:20;;;;;;;1.17;0.90;;;;;;;;;;5070804;28;20525;-72
2022/06/01 12:11:48;;;;;;;1.20;1.00;;;;;;;;;;5070556;28;20469;-71
2022/06/01 12:14:26;;;;;;;1.23;0.97;;;;;;;;;;5071278;28;20477;-71
2022/06/01 12:17:08;;;;;;;0.80;0.80;;;;;;;;;;5070586;28;20516;-71
2022/06/01 12:19:36;;;;;;;1.03;0.93;;;24.00;1.00;;;;;;5058104;28;20532;-71
2022/06/01 12:22:03;;;;;;;1.40;1.17;;;25.20;1.00;;;;;;5070649;28;20762;-71
2022/06/01 12:30:18;;;;;;;2.70;1.00;;;24.70;1.00;;;;;;5070835;28;21031;-71
2022/06/01 12:33:08;;;;;;;0.80;0.80;;;24.80;1.00;;;;;;5069963;28;20493;-71
2022/06/01 12:35:45;;;;;;;0.80;0.80;;;24.80;1.00;;;;;;5060415;28;20453;-70
2022/06/01 12:38:18;;;;;;;1.20;1.10;;;24.70;1.00;;;;;;5070670;28;20929;-73
2022/06/01 12:40:56;;;;;;;1.17;1.07;;;24.60;1.00;;;;;;5069943;28;20442;-71
2022/06/01 12:43:23;;;;;;;1.00;0.90;;;23.90;1.00;;;;;;5057378;28;20433;-71
2022/06/01 12:45:52;;;;;;;1.17;0.80;;;23.90;1.00;;;;;;5070032;28;20886;-71
2022/06/01 12:48:23;;;;;;;0.90;0.90;;;23.70;1.00;;;;;;5057500;28;20454;-71
2022/06/01 12:50:54;;;;;;;1.37;1.00;;;23.60;1.00;;;;;;5070191;28;20441;-72
2022/06/01 12:53:24;;;;;;;1.30;1.20;;;23.70;1.00;;;;;;5070685;28;20474;-71
2022/06/01 12:56:06;;;;;;;0.90;0.90;;;23.70;1.00;;;;;;5070004;28;20441;-71
2022/06/01 12:58:34;;;;;;;1.30;1.13;;;23.80;1.00;;;;;;5070789;28;20446;-71
2022/06/01 13:01:01;;;;;;;2.00;1.20;;;23.80;1.00;;;;;;5071034;28;20964;-70
2022/06/01 13:03:32;;;;;;;0.90;0.90;;;23.20;1.00;;;;;;5075449;28;20457;-70
2022/06/01 13:06:03;;;;;;;1.20;1.10;;;23.50;1.00;;;;;;5074666;28;20461;-70
2022/06/01 13:08:37;;;;;;;0.87;0.87;;;23.50;1.00;;;;;;5074180;28;20442;-71
2022/06/01 13:11:18;;;;;;;2.20;1.20;;;23.50;1.00;;;;;;5073825;28;20442;-71
2022/06/01 13:13:45;;;;;;;2.00;1.00;;;24.00;1.00;;;;;;5073464;28;20998;-71
2022/06/01 13:16:13;;;;;;;1.17;1.00;;;23.70;1.00;;;;;;5074550;28;20779;-72
2022/06/01 13:18:42;;;;;;;1.40;1.07;;;24.20;1.00;;;;;;5073999;28;20489;-72
2022/06/01 13:21:17;;;;;;;1.30;1.03;;;24.30;1.00;;;;;;5074008;28;20442;-72
2022/06/01 13:23:52;;;;;;;1.07;0.97;;;24.10;1.00;;;;;;5073272;28;20527;-72
2022/06/01 13:26:31;;;;;;;1.20;1.10;;;24.30;1.00;;;;;;5073746;28;20442;-72
2022/06/01 13:29:09;;;;;;;1.30;1.20;;;24.40;1.00;;;;;;5072971;28;20449;-72
2022/06/01 13:31:36;;;;;;;2.73;1.10;;;24.30;1.00;;;;;;5074130;28;20473;-71
2022/06/01 13:34:06;;;;;;;1.07;0.97;;;23.80;1.00;;;;;;5072990;28;21026;-71
2022/06/01 13:36:39;;;;;;;1.00;1.00;;;23.50;1.00;;;;;;5073712;28;20442;-72
2022/06/01 13:39:09;;;;;;;1.23;1.00;;;23.50;1.00;;;;;;5073552;28;20808;-71
2022/06/01 13:41:38;;;;;;;1.53;1.23;;;;;;;;;;5073835;28;20532;-71
2022/06/01 13:44:09;;;;;;;1.53;1.27;;;;;;;;;;5073016;28;20983;-72
2022/06/01 13:46:40;;;;;;;1.80;1.10;;;;;;;;;;5074035;28;20456;-72
2022/06/01 13:49:10;;;;;;;2.20;1.10;;;;;;;;;;5073264;28;20445;-71
2022/06/01 13:51:40;;;;;;;1.13;1.03;;;;;;;;;;5073753;28;20456;-71
2022/06/01 13:54:19;;;;;;;2.07;1.27;;;;;;;;;;5073841;28;20473;-71
2022/06/01 13:56:47;;;;;;;1.90;1.10;;;;;;;;;;5073217;28;20446;-72
2022/06/01 13:59:15;;;;;;;1.30;1.20;;;;;;;;;;5073348;28;20886;-71
2022/06/01 14:01:44;;;;;;;1.33;1.17;;;;;;;;;;5072734;28;20455;-72
2022/06/01 14:04:14;;;;;;;1.90;1.23;;;;;;;;;;5073296;28;20454;-72
2022/06/01 14:06:44;;;;;;;1.17;1.10;;;;;;;;;;5072927;28;20975;-74
2022/06/01 14:09:14;;;;;;;1.17;1.07;;;;;;;;;;5072975;28;20544;-72
2022/06/01 14:11:41;;;;;;;1.30;1.20;;;;;;;;;;5072835;28;20462;-72
2022/06/01 14:14:10;;;;;;;1.20;1.10;;;;;;;;;;5073179;28;20575;-71
2022/06/01 14:16:43;;;;;;;1.57;1.07;;;;;;;;;;5072893;28;20452;-71
2022/06/01 14:19:10;;;;;;;1.40;1.30;;;;;;;;;;5072645;28;20937;-70
2022/06/01 14:21:37;;;;;;;1.60;1.23;;;;;;;;;;5072757;28;20577;-71
2022/06/01 14:24:06;;;;;;;1.67;1.57;;;;;;;;;;5072557;28;20473;-71
2022/06/01 14:29:18;;;;;;;1.30;1.20;;;;;;;;;;5072454;28;20446;-71